Time;durP1;ratioP1;P1;durP2;ratioP2;P2;SDS_P1;SDS_P2;PMS_P1;PMS_P2;Temp;Humidity;BMP_temperature;BMP_pressure;BME280_temperature;BME280_humidity;BME280_pressure;Samples;Min_cycle;Max_cycle;Signal;HPM_P1;HPM_P2
2022/10/24 00:00:19;;;;;;;4.10;1.30;;;14.40;99.90;;;;;;5102581;27;21426;-90
2022/10/24 00:02:45;;;;;;;4.00;0.82;;;14.40;99.90;;;;;;5098541;27;20039;-88
2022/10/24 00:05:12;;;;;;;7.38;1.40;;;14.50;99.90;;;;;;5099131;28;20152;-90
2022/10/24 00:07:38;;;;;;;3.72;1.08;;;14.40;99.90;;;;;;5112138;27;20063;-77
2022/10/24 00:10:05;;;;;;;5.18;1.50;;;15.40;99.90;;;;;;5112057;27;20522;-83
2022/10/24 00:12:31;;;;;;;3.75;1.15;;;14.40;99.90;;;;;;5097779;28;20089;-84
2022/10/24 00:14:56;;;;;;;4.90;1.00;;;14.40;99.90;;;;;;5096254;28;20047;-89
2022/10/24 00:17:22;;;;;;;5.18;1.38;;;14.90;99.90;;;;;;5132596;27;20100;-81
2022/10/24 00:19:48;;;;;;;6.80;1.30;;;14.40;99.90;;;;;;5096230;28;20067;-86
2022/10/24 00:22:13;;;;;;;6.95;1.15;;;15.50;99.90;;;;;;5096949;28;20093;-88
2022/10/24 00:24:39;;;;;;;2.13;1.10;;;15.00;99.90;;;;;;5100756;28;20027;-88
2022/10/24 00:27:04;;;;;;;4.30;1.02;;;14.40;99.90;;;;;;5112138;28;20047;-89
2022/10/24 00:29:30;;;;;;;7.20;0.95;;;14.30;99.90;;;;;;5096149;28;20110;-88
2022/10/24 00:31:56;;;;;;;4.38;1.50;;;14.30;99.90;;;;;;5083487;28;20061;-88
2022/10/24 00:34:22;;;;;;;4.45;1.98;;;14.30;99.90;;;;;;5085218;28;20039;-85
2022/10/24 00:36:47;;;;;;;5.22;1.42;;;14.20;99.90;;;;;;5100093;28;20063;-86
2022/10/24 00:39:13;;;;;;;2.75;1.33;;;14.30;99.90;;;;;;5098125;28;20410;-85
2022/10/24 00:41:41;;;;;;;6.18;1.25;;;14.90;99.90;;;;;;5111635;27;20039;-87
2022/10/24 00:44:26;;;;;;;8.68;1.17;;;14.30;99.90;;;;;;5102500;28;20192;-87
2022/10/24 00:47:03;;;;;;;4.63;1.50;;;14.30;99.90;;;;;;5094826;28;20047;-79
2022/10/24 00:49:50;;;;;;;5.65;1.35;;;14.30;99.90;;;;;;5085175;28;20040;-87
2022/10/24 00:52:22;;;;;;;5.72;1.00;;;14.30;99.90;;;;;;5100162;28;20399;-88
2022/10/24 00:54:49;;;;;;;6.85;1.42;;;15.50;99.90;;;;;;5098511;28;20047;-83
2022/10/24 00:57:41;;;;;;;3.63;1.20;;;14.20;99.90;;;;;;5089523;28;20071;-85
2022/10/24 01:00:12;;;;;;;7.60;1.25;;;14.30;99.90;;;;;;5095639;28;20054;-88
2022/10/24 01:02:38;;;;;;;7.65;1.05;;;15.20;99.90;;;;;;5100837;28;20127;-84
2022/10/24 01:05:07;;;;;;;2.53;1.00;;;14.30;99.90;;;;;;5099610;28;20055;-88
2022/10/24 01:08:02;;;;;;;8.00;1.20;;;14.30;99.90;;;;;;5104465;28;20044;-87
2022/10/24 01:10:32;;;;;;;;;;;15.40;99.90;;;;;;5091891;28;20055;-88
2022/10/24 01:13:19;;;;;;;6.43;1.08;;;14.30;99.90;;;;;;5123347;27;19926;-84
2022/10/24 01:16:03;;;;;;;4.15;1.05;;;14.30;99.90;;;;;;5132029;27;20525;-85
2022/10/24 01:18:53;;;;;;;3.28;1.00;;;14.20;99.90;;;;;;5085110;28;20040;-87
2022/10/24 01:21:27;;;;;;;3.60;1.10;;;14.30;99.90;;;;;;5098966;28;20497;-85
2022/10/24 01:24:37;;;;;;;3.65;0.60;;;14.30;99.90;;;;;;5130070;27;20056;-86
2022/10/24 01:27:17;;;;;;;8.23;1.20;;;14.30;99.90;;;;;;5120088;27;20491;-87
2022/10/24 01:29:57;;;;;;;7.32;1.38;;;14.30;99.90;;;;;;5106467;28;20090;-87
2022/10/24 01:32:30;;;;;;;6.90;1.10;;;14.30;99.90;;;;;;5112052;28;20050;-88
2022/10/24 01:34:59;;;;;;;8.05;1.08;;;14.30;99.90;;;;;;5114190;28;20047;-89
2022/10/24 01:37:50;;;;;;;4.25;1.35;;;14.30;99.90;;;;;;5089815;28;20052;-86
2022/10/24 01:40:34;;;;;;;5.10;0.90;;;14.30;99.90;;;;;;5091498;28;20051;-87
2022/10/24 01:43:06;;;;;;;10.00;1.42;;;14.40;99.90;;;;;;5112081;28;20032;-86
2022/10/24 01:45:35;;;;;;;8.55;1.30;;;14.40;99.90;;;;;;5088141;28;20048;-87
2022/10/24 01:48:04;;;;;;;3.85;1.00;;;14.40;99.90;;;;;;5102252;28;20066;-85
2022/10/24 01:50:33;;;;;;;5.55;1.40;;;14.40;99.90;;;;;;5109380;28;20040;-79
2022/10/24 01:52:59;;;;;;;3.92;1.20;;;14.40;99.90;;;;;;5108498;28;20044;-83
2022/10/24 01:55:31;;;;;;;7.78;1.73;;;14.40;99.90;;;;;;5091427;28;20047;-84
2022/10/24 01:57:58;;;;;;;3.42;1.25;;;15.60;99.90;;;;;;5070556;28;20032;-88
2022/10/24 02:00:24;;;;;;;7.65;1.45;;;14.40;99.90;;;;;;5104030;28;20091;-76
2022/10/24 02:03:37;;;;;;;3.58;1.38;;;15.40;99.90;;;;;;5110417;28;20061;-80
2022/10/24 02:06:21;;;;;;;6.85;1.77;;;14.50;99.90;;;;;;5108508;28;20043;-83
2022/10/24 02:08:50;;;;;;;;;;;14.50;99.90;;;;;;5124774;28;20093;-87
2022/10/24 02:11:15;;;;;;;9.23;1.70;;;14.60;99.90;;;;;;5103173;28;19916;-87
2022/10/24 02:13:58;;;;;;;5.70;1.48;;;14.60;99.90;;;;;;5108469;28;20067;-81
2022/10/24 02:16:25;;;;;;;4.03;1.60;;;14.60;99.90;;;;;;5129595;28;20040;-83
2022/10/24 02:18:53;;;;;;;10.15;1.80;;;14.60;99.90;;;;;;5104333;28;20042;-81
2022/10/24 02:21:31;;;;;;;5.40;1.80;;;14.60;99.90;;;;;;5114738;28;20079;-86
2022/10/24 02:24:12;;;;;;;8.73;1.70;;;14.60;99.90;;;;;;5101230;28;20050;-77
2022/10/24 02:27:04;;;;;;;6.20;1.73;;;14.70;99.90;;;;;;5088466;28;20044;-85
2022/10/24 02:29:46;;;;;;;3.78;1.80;;;14.70;99.90;;;;;;5085549;28;20527;-85
2022/10/24 02:32:17;;;;;;;5.70;1.73;;;14.70;99.90;;;;;;5098830;28;20032;-88
2022/10/24 02:34:45;;;;;;;5.00;1.50;;;14.70;99.90;;;;;;5107231;28;20042;-80
2022/10/24 02:37:11;;;;;;;6.43;1.90;;;14.70;99.90;;;;;;5088451;28;20051;-86
2022/10/24 02:39:39;;;;;;;13.85;1.73;;;14.70;99.90;;;;;;5124646;27;20514;-85
2022/10/24 02:42:07;;;;;;;8.02;1.90;;;13.80;99.90;;;;;;5104900;28;20036;-82
2022/10/24 02:44:35;;;;;;;5.35;1.60;;;14.70;99.90;;;;;;5078185;28;20052;-79
2022/10/24 02:47:04;;;;;;;10.07;1.60;;;14.80;99.90;;;;;;5091512;28;20046;-86
2022/10/24 02:49:29;;;;;;;10.25;2.45;;;14.80;99.90;;;;;;5091168;28;20036;-86
2022/10/24 02:51:56;;;;;;;7.30;2.05;;;14.70;99.90;;;;;;5091142;28;20119;-78
2022/10/24 02:54:22;;;;;;;5.75;1.73;;;14.70;99.90;;;;;;5091299;28;20044;-84
2022/10/24 02:56:53;;;;;;;7.20;1.58;;;14.70;99.90;;;;;;5091631;28;20073;-84
2022/10/24 02:59:18;;;;;;;7.18;1.83;;;14.80;99.90;;;;;;5094317;28;20043;-80
2022/10/24 03:01:44;;;;;;;8.00;1.55;;;14.60;99.90;;;;;;5090902;28;20498;-81
2022/10/24 03:04:10;;;;;;;8.10;1.77;;;14.70;99.90;;;;;;5097710;28;20046;-75
2022/10/24 03:06:36;;;;;;;10.80;1.80;;;14.70;99.90;;;;;;5126455;27;20035;-87
2022/10/24 03:09:02;;;;;;;4.00;1.45;;;14.70;99.90;;;;;;5101923;27;20032;-78
2022/10/24 03:11:28;;;;;;;11.00;1.70;;;14.70;99.90;;;;;;5099515;28;20512;-85
2022/10/24 03:13:53;;;;;;;7.75;1.40;;;15.20;99.90;;;;;;5109795;28;20053;-86
2022/10/24 03:16:19;;;;;;;5.22;1.70;;;15.70;99.90;;;;;;5107707;28;20032;-83
2022/10/24 03:18:45;;;;;;;4.35;1.73;;;14.70;99.90;;;;;;5105328;28;20043;-85
2022/10/24 03:21:10;;;;;;;7.88;1.42;;;14.70;99.90;;;;;;5090983;28;20051;-86
2022/10/24 03:23:36;;;;;;;6.93;1.80;;;14.70;99.90;;;;;;5091034;28;20118;-84
2022/10/24 03:26:01;;;;;;;5.07;1.58;;;14.70;99.90;;;;;;5107486;28;20494;-77
2022/10/24 03:28:27;;;;;;;9.60;1.73;;;14.70;99.90;;;;;;5108844;28;20084;-82
2022/10/24 03:30:55;;;;;;;5.07;1.30;;;14.70;99.90;;;;;;5084896;28;20043;-83
2022/10/24 03:33:21;;;;;;;5.03;1.65;;;14.70;99.90;;;;;;5101118;28;20035;-88
2022/10/24 03:35:51;;;;;;;10.00;1.70;;;14.70;99.90;;;;;;5088750;28;20036;-84
2022/10/24 03:38:17;;;;;;;7.90;1.55;;;14.70;99.90;;;;;;5091886;28;20051;-78
2022/10/24 03:40:42;;;;;;;5.00;1.25;;;15.00;99.90;;;;;;5111755;27;20040;-84
2022/10/24 03:43:08;;;;;;;5.25;1.60;;;14.90;99.90;;;;;;5108635;28;20048;-87
2022/10/24 03:45:34;;;;;;;5.82;1.50;;;14.80;99.90;;;;;;5086031;28;20403;-80
2022/10/24 03:47:59;;;;;;;8.05;1.23;;;14.80;99.90;;;;;;5108262;28;20071;-81
2022/10/24 03:50:25;;;;;;;5.47;1.85;;;14.80;99.90;;;;;;5116434;28;20035;-83
2022/10/24 03:52:51;;;;;;;4.78;1.10;;;14.80;99.90;;;;;;5115556;28;20055;-79
2022/10/24 03:55:17;;;;;;;7.57;1.77;;;14.10;99.90;;;;;;5111007;27;20532;-84
2022/10/24 03:57:42;;;;;;;4.18;1.30;;;14.30;99.90;;;;;;5109733;28;20054;-83
2022/10/24 04:00:09;;;;;;;7.47;1.38;;;15.00;99.90;;;;;;5126278;27;20043;-87
2022/10/24 04:02:34;;;;;;;4.85;1.77;;;14.90;99.90;;;;;;5113355;28;20505;-88
2022/10/24 04:05:01;;;;;;;3.88;1.65;;;14.90;99.90;;;;;;5093408;28;20047;-84
2022/10/24 04:07:30;;;;;;;8.07;1.73;;;15.60;99.90;;;;;;5111870;28;20450;-87
2022/10/24 04:09:56;;;;;;;4.50;1.55;;;14.90;99.90;;;;;;5088072;28;20040;-82
2022/10/24 04:12:23;;;;;;;7.05;1.90;;;14.90;99.90;;;;;;5114049;28;20036;-82
2022/10/24 04:14:48;;;;;;;5.38;1.25;;;14.80;99.90;;;;;;5111375;28;20043;-84
2022/10/24 04:17:14;;;;;;;4.43;1.63;;;14.80;99.90;;;;;;5110118;28;20099;-88
2022/10/24 04:19:40;;;;;;;6.63;1.55;;;15.20;99.90;;;;;;5104882;28;20123;-87
2022/10/24 04:22:06;;;;;;;7.90;2.08;;;14.90;99.90;;;;;;5115430;28;20518;-83
2022/10/24 04:24:31;;;;;;;7.15;1.80;;;15.30;99.90;;;;;;5092386;28;20062;-86
2022/10/24 04:26:57;;;;;;;9.25;1.83;;;14.70;99.90;;;;;;5112452;28;20032;-79
2022/10/24 04:29:23;;;;;;;6.70;1.40;;;14.70;99.90;;;;;;5089482;28;20079;-87
2022/10/24 04:31:49;;;;;;;5.70;1.85;;;14.60;99.90;;;;;;5122449;27;20070;-84
2022/10/24 04:34:16;;;;;;;7.22;1.83;;;14.60;99.90;;;;;;5096116;28;20078;-78
2022/10/24 04:36:41;;;;;;;5.20;1.52;;;14.60;99.90;;;;;;5109897;28;20059;-80
2022/10/24 04:39:07;;;;;;;8.77;1.30;;;15.30;99.90;;;;;;5095659;28;20109;-85
2022/10/24 04:41:33;;;;;;;7.80;2.38;;;14.50;99.90;;;;;;5113265;28;20047;-82
2022/10/24 04:43:59;;;;;;;7.55;1.50;;;14.50;99.90;;;;;;5090578;28;20047;-82
2022/10/24 04:46:25;;;;;;;10.40;1.75;;;14.50;99.90;;;;;;5094526;28;20121;-81
2022/10/24 04:48:52;;;;;;;7.03;1.30;;;14.50;99.90;;;;;;5084867;28;20044;-86
2022/10/24 04:51:18;;;;;;;9.13;1.70;;;14.70;99.90;;;;;;5087793;28;20044;-77
2022/10/24 04:53:44;;;;;;;7.07;1.63;;;14.40;99.90;;;;;;5108496;28;20044;-76
2022/10/24 04:56:09;;;;;;;4.35;1.80;;;14.40;99.90;;;;;;5089761;28;20036;-77
2022/10/24 04:58:35;;;;;;;8.85;1.48;;;14.40;99.90;;;;;;5101186;28;20136;-72
2022/10/24 05:01:01;;;;;;;7.82;1.50;;;14.40;99.90;;;;;;5079973;28;20046;-75
2022/10/24 05:03:27;;;;;;;3.67;2.08;;;14.40;99.90;;;;;;5105792;27;20040;-73
2022/10/24 05:05:53;;;;;;;6.38;1.30;;;14.40;99.90;;;;;;5092258;28;20411;-74
2022/10/24 05:08:18;;;;;;;7.20;1.45;;;14.30;99.90;;;;;;5108550;28;20035;-74
2022/10/24 05:10:45;;;;;;;6.50;1.80;;;14.60;99.90;;;;;;5097914;28;20039;-75
2022/10/24 05:13:10;;;;;;;7.25;2.45;;;14.20;99.90;;;;;;5105162;28;20043;-72
2022/10/24 05:15:36;;;;;;;7.57;1.58;;;14.20;99.90;;;;;;5087627;28;20036;-76
2022/10/24 05:18:03;;;;;;;8.93;1.70;;;15.20;99.90;;;;;;5106842;28;20117;-76
2022/10/24 05:20:29;;;;;;;4.35;1.20;;;14.20;99.90;;;;;;5089165;28;20050;-74
2022/10/24 05:22:55;;;;;;;5.35;1.02;;;14.20;99.90;;;;;;5108356;28;20036;-75
2022/10/24 05:25:21;;;;;;;7.50;1.35;;;15.30;99.90;;;;;;5108633;28;20105;-76
2022/10/24 05:27:47;;;;;;;9.23;1.55;;;14.20;99.90;;;;;;5086379;28;20126;-77
2022/10/24 05:30:13;;;;;;;8.30;1.45;;;15.50;99.90;;;;;;5108015;28;20170;-84
2022/10/24 05:32:39;;;;;;;7.75;1.42;;;14.20;99.90;;;;;;5109020;28;20048;-83
2022/10/24 05:35:06;;;;;;;8.82;1.58;;;14.10;99.90;;;;;;5107245;28;20040;-82
2022/10/24 05:37:31;;;;;;;9.02;1.42;;;14.10;99.90;;;;;;5110789;28;20083;-80
2022/10/24 05:39:57;;;;;;;11.27;1.67;;;14.10;99.90;;;;;;5109352;28;20086;-77
2022/10/24 05:42:23;;;;;;;7.68;1.42;;;14.20;99.90;;;;;;5109134;28;20093;-81
2022/10/24 05:44:48;;;;;;;6.47;1.50;;;14.10;99.90;;;;;;5109838;28;20447;-78
2022/10/24 05:47:14;;;;;;;10.52;1.58;;;14.20;99.90;;;;;;5104101;28;20909;-80
2022/10/24 05:49:40;;;;;;;10.85;1.33;;;14.80;99.90;;;;;;5103060;28;20063;-84
2022/10/24 05:52:06;;;;;;;6.70;1.17;;;14.40;99.90;;;;;;5089872;28;20491;-82
2022/10/24 05:54:31;;;;;;;6.88;1.92;;;14.30;99.90;;;;;;5110723;28;20071;-81
2022/10/24 05:56:57;;;;;;;5.07;1.00;;;14.60;99.90;;;;;;5103540;28;20409;-85
2022/10/24 05:59:23;;;;;;;5.68;1.45;;;14.30;99.90;;;;;;5110869;28;20718;-79
2022/10/24 06:01:48;;;;;;;14.63;1.95;;;14.30;99.90;;;;;;5113271;28;20031;-88
2022/10/24 06:04:14;;;;;;;6.80;1.33;;;14.30;99.90;;;;;;5110464;28;20074;-74
2022/10/24 06:06:44;;;;;;;8.15;1.40;;;14.50;99.90;;;;;;5105850;28;20364;-81
2022/10/24 06:09:12;;;;;;;4.55;1.30;;;14.90;99.90;;;;;;5107681;28;20048;-79
2022/10/24 06:11:38;;;;;;;11.23;1.15;;;14.30;99.90;;;;;;5085994;28;20088;-80
2022/10/24 06:14:05;;;;;;;6.45;0.90;;;14.30;99.90;;;;;;5109440;28;20126;-76
2022/10/24 06:16:32;;;;;;;8.65;1.30;;;14.30;99.90;;;;;;5105805;28;20040;-77
2022/10/24 06:18:59;;;;;;;9.55;1.05;;;14.70;99.90;;;;;;5108602;28;20410;-79
2022/10/24 06:21:24;;;;;;;6.25;1.38;;;15.40;99.90;;;;;;5110743;28;20036;-81
2022/10/24 06:23:51;;;;;;;7.78;1.13;;;14.40;99.90;;;;;;5091266;28;20062;-77
2022/10/24 06:26:17;;;;;;;8.48;1.45;;;14.70;99.90;;;;;;5108770;28;20467;-76
2022/10/24 06:28:43;;;;;;;4.03;0.93;;;14.30;99.90;;;;;;5110902;28;20262;-78
2022/10/24 06:31:11;;;;;;;7.90;1.20;;;14.20;99.90;;;;;;5109208;28;20532;-76
2022/10/24 06:33:37;;;;;;;9.38;2.75;;;14.20;99.90;;;;;;5109135;28;20124;-77
2022/10/24 06:36:05;;;;;;;10.77;2.15;;;14.20;99.90;;;;;;5108484;28;20067;-77
2022/10/24 06:38:31;;;;;;;6.22;1.17;;;14.20;99.90;;;;;;5095321;28;20043;-78
2022/10/24 06:40:57;;;;;;;5.05;1.10;;;14.80;99.90;;;;;;5112790;28;20043;-76
2022/10/24 06:43:23;;;;;;;6.63;1.10;;;14.20;99.90;;;;;;5096472;28;20040;-81
2022/10/24 06:45:49;;;;;;;6.95;1.30;;;14.20;99.90;;;;;;5094689;28;20036;-77
2022/10/24 06:48:15;;;;;;;4.93;1.17;;;14.30;99.90;;;;;;5112529;28;20406;-79
2022/10/24 06:50:41;;;;;;;5.95;1.33;;;14.80;99.90;;;;;;5113432;28;20032;-80
2022/10/24 06:53:08;;;;;;;11.85;1.33;;;14.80;99.90;;;;;;5112829;28;20058;-78
2022/10/24 06:55:39;;;;;;;6.78;1.02;;;14.30;99.90;;;;;;5113129;28;20047;-77
2022/10/24 06:58:05;;;;;;;6.93;1.17;;;14.70;99.90;;;;;;5081318;28;20050;-77
2022/10/24 07:00:33;;;;;;;10.88;1.30;;;14.50;99.90;;;;;;5097711;28;20122;-76
2022/10/24 07:02:59;;;;;;;7.45;1.92;;;15.50;99.90;;;;;;5089596;28;20088;-75
2022/10/24 07:05:25;;;;;;;8.20;1.17;;;14.40;99.90;;;;;;5111949;28;20067;-74
2022/10/24 07:07:52;;;;;;;6.88;1.60;;;14.40;99.90;;;;;;5112933;28;20067;-76
2022/10/24 07:10:18;;;;;;;4.10;0.75;;;14.40;99.90;;;;;;5104571;28;20059;-81
2022/10/24 07:12:45;;;;;;;6.18;1.00;;;14.20;99.90;;;;;;5111228;28;20406;-76
2022/10/24 07:15:11;;;;;;;8.15;1.30;;;15.00;99.90;;;;;;5094670;28;20555;-82
2022/10/24 07:17:44;;;;;;;8.13;1.45;;;14.50;99.90;;;;;;5111782;28;20048;-76
2022/10/24 07:20:11;;;;;;;6.55;1.45;;;14.50;99.90;;;;;;5111903;28;20049;-78
2022/10/24 07:22:37;;;;;;;11.18;2.85;;;14.50;99.90;;;;;;5094849;28;20046;-79
2022/10/24 07:25:04;;;;;;;7.72;1.48;;;14.50;99.90;;;;;;5110710;28;20044;-79
2022/10/24 07:27:30;;;;;;;5.82;1.10;;;14.50;99.90;;;;;;5111144;28;20120;-76
2022/10/24 07:29:56;;;;;;;5.65;1.40;;;15.30;99.90;;;;;;5094464;28;20073;-78
2022/10/24 07:32:21;;;;;;;7.30;1.10;;;15.20;99.90;;;;;;5112024;28;20066;-80
2022/10/24 07:34:47;;;;;;;5.78;1.13;;;14.60;99.90;;;;;;5112130;28;20069;-76
2022/10/24 07:37:14;;;;;;;8.45;1.33;;;14.80;99.90;;;;;;5112025;28;20055;-76
2022/10/24 07:39:40;;;;;;;7.47;0.63;;;14.60;99.90;;;;;;5110535;28;20399;-77
2022/10/24 07:42:06;;;;;;;4.95;1.20;;;14.60;99.90;;;;;;5112110;28;20596;-78
2022/10/24 07:44:31;;;;;;;10.65;1.00;;;14.70;99.90;;;;;;5111934;28;20031;-77
2022/10/24 07:46:57;;;;;;;9.27;1.00;;;15.30;99.90;;;;;;5111585;28;20089;-80
2022/10/24 07:49:23;;;;;;;4.60;0.80;;;14.80;99.90;;;;;;5111590;28;20464;-79
2022/10/24 07:51:49;;;;;;;4.80;0.95;;;14.90;99.90;;;;;;5092221;28;20046;-81
2022/10/24 07:54:14;;;;;;;6.90;3.33;;;15.90;99.90;;;;;;5097699;28;20044;-80
2022/10/24 07:56:40;;;;;;;4.07;1.00;;;15.00;99.90;;;;;;5111110;28;20042;-78
2022/10/24 07:59:06;;;;;;;7.43;0.90;;;15.00;99.90;;;;;;5112056;28;20044;-79
2022/10/24 08:01:31;;;;;;;7.53;1.60;;;15.00;99.90;;;;;;5112113;28;20099;-80
2022/10/24 08:03:57;;;;;;;9.52;2.03;;;15.00;99.90;;;;;;5107842;28;20083;-81
2022/10/24 08:06:28;;;;;;;8.05;0.95;;;15.10;99.90;;;;;;5112389;28;20075;-76
2022/10/24 08:08:53;;;;;;;8.98;1.27;;;15.20;99.90;;;;;;5111312;28;20043;-81
2022/10/24 08:11:24;;;;;;;4.80;0.95;;;16.20;99.90;;;;;;5143230;27;20047;-82
2022/10/24 08:13:52;;;;;;;6.22;1.10;;;16.00;99.90;;;;;;5110663;28;20482;-81
2022/10/24 08:16:19;;;;;;;4.07;1.02;;;15.30;99.90;;;;;;5111467;28;20039;-81
2022/10/24 08:18:46;;;;;;;5.95;1.30;;;15.50;99.90;;;;;;5104687;28;20045;-81
2022/10/24 08:21:13;;;;;;;6.38;1.00;;;15.40;99.90;;;;;;5109846;28;20035;-81
2022/10/24 08:23:43;;;;;;;7.47;0.95;;;15.40;99.90;;;;;;5110410;28;20078;-82
2022/10/24 08:26:12;;;;;;;7.63;1.30;;;15.40;99.90;;;;;;5089678;28;20044;-83
2022/10/24 08:28:38;;;;;;;11.73;1.90;;;15.30;99.90;;;;;;5080648;28;20046;-82
2022/10/24 08:31:06;;;;;;;7.00;1.45;;;15.40;99.90;;;;;;5086033;28;20035;-86
2022/10/24 08:33:32;;;;;;;6.78;0.80;;;16.30;99.90;;;;;;5100321;28;20042;-83
2022/10/24 08:36:03;;;;;;;6.22;1.27;;;16.50;99.90;;;;;;5091177;28;20265;-83
2022/10/24 08:38:29;;;;;;;7.80;1.35;;;15.60;99.90;;;;;;5102198;28;20525;-84
2022/10/24 08:40:56;;;;;;;10.25;1.35;;;15.40;99.90;;;;;;5109725;28;20421;-82
2022/10/24 08:43:22;;;;;;;5.30;1.17;;;16.20;99.90;;;;;;5092572;28;20521;-83
2022/10/24 08:45:59;;;;;;;8.13;1.23;;;15.30;99.90;;;;;;5107089;28;20038;-83
2022/10/24 08:48:34;;;;;;;7.72;1.25;;;15.40;99.90;;;;;;5105858;28;20056;-79
2022/10/24 08:51:18;;;;;;;6.72;1.40;;;15.30;99.90;;;;;;5092225;28;20042;-85
2022/10/24 08:53:45;;;;;;;5.63;1.88;;;15.40;99.90;;;;;;5107058;28;20049;-82
2022/10/24 08:56:10;;;;;;;13.77;1.20;;;15.40;99.90;;;;;;5092283;28;20517;-83
2022/10/24 08:58:41;;;;;;;4.18;1.13;;;16.20;99.90;;;;;;5108128;28;20036;-83
2022/10/24 09:01:16;;;;;;;5.65;1.70;;;15.40;99.90;;;;;;5107410;28;20036;-81
2022/10/24 09:03:46;;;;;;;6.10;0.82;;;15.50;99.90;;;;;;5105693;28;20146;-84
2022/10/24 09:06:16;;;;;;;9.02;1.35;;;15.40;99.90;;;;;;5108447;28;20085;-82
2022/10/24 09:08:50;;;;;;;6.50;1.77;;;15.40;99.90;;;;;;5092050;28;20035;-83
2022/10/24 09:11:37;;;;;;;9.18;1.75;;;15.40;99.90;;;;;;5107849;28;20052;-84
2022/10/24 09:14:20;;;;;;;7.00;1.30;;;15.40;99.90;;;;;;5107338;28;20044;-82
2022/10/24 09:17:09;;;;;;;4.82;1.08;;;16.00;99.90;;;;;;5085046;28;20036;-83
2022/10/24 09:19:36;;;;;;;8.98;1.52;;;15.20;99.90;;;;;;5095402;28;20043;-83
2022/10/24 09:22:03;;;;;;;7.78;1.23;;;15.20;99.90;;;;;;5089611;28;20047;-83
2022/10/24 09:24:37;;;;;;;9.77;1.40;;;15.10;99.90;;;;;;5108342;28;20151;-82
2022/10/24 09:27:09;;;;;;;8.77;1.35;;;15.20;99.90;;;;;;5092382;28;20040;-83
2022/10/24 09:29:35;;;;;;;4.10;1.05;;;15.60;99.90;;;;;;5108514;28;20054;-84
2022/10/24 09:32:01;;;;;;;5.55;1.30;;;15.30;99.90;;;;;;5101625;28;20499;-82
2022/10/24 09:34:26;;;;;;;7.20;1.05;;;15.40;99.90;;;;;;5113935;27;20036;-83
2022/10/24 09:36:52;;;;;;;6.55;1.20;;;16.50;99.90;;;;;;5108935;28;20056;-80
2022/10/24 09:39:26;;;;;;;8.38;1.02;;;15.50;99.90;;;;;;5108620;28;20073;-80
2022/10/24 09:41:52;;;;;;;9.63;1.27;;;16.90;99.90;;;;;;5107748;28;20039;-83
2022/10/24 09:44:36;;;;;;;8.10;1.23;;;15.70;99.90;;;;;;5092385;28;20062;-82
2022/10/24 09:47:04;;;;;;;5.78;1.00;;;15.70;99.90;;;;;;5107260;28;20035;-83
2022/10/24 09:49:34;;;;;;;7.60;1.42;;;15.70;99.90;;;;;;5108234;28;20118;-83
2022/10/24 09:52:18;;;;;;;7.43;1.17;;;15.70;99.90;;;;;;5107326;28;20489;-84
2022/10/24 09:54:45;;;;;;;6.20;1.10;;;16.20;99.90;;;;;;5102212;28;20584;-83
2022/10/24 09:57:10;;;;;;;6.28;1.33;;;15.90;99.90;;;;;;5107729;28;20071;-83
2022/10/24 09:59:45;;;;;;;8.00;1.40;;;15.90;99.90;;;;;;5092002;28;20482;-83
2022/10/24 10:02:13;;;;;;;5.53;1.58;;;15.90;99.90;;;;;;5106334;28;20036;-83
2022/10/24 10:04:40;;;;;;;8.10;2.00;;;15.90;99.90;;;;;;5099915;28;20104;-83
2022/10/24 10:07:11;;;;;;;4.78;0.80;;;15.90;99.90;;;;;;5115004;28;20039;-85
2022/10/24 10:09:45;;;;;;;5.72;1.33;;;16.00;99.90;;;;;;5110388;28;20032;-85
2022/10/24 10:12:34;;;;;;;4.22;0.63;;;16.10;99.90;;;;;;5108290;28;20494;-82
2022/10/24 10:15:28;;;;;;;4.43;0.95;;;16.00;99.90;;;;;;5099513;28;20112;-82
2022/10/24 10:17:56;;;;;;;;;;;16.00;99.90;;;;;;5090949;28;20040;-83
2022/10/24 10:20:30;;;;;;;9.20;1.73;;;16.10;99.90;;;;;;5112028;28;19926;-84
2022/10/24 10:23:31;;;;;;;5.70;1.17;;;16.60;99.90;;;;;;5113315;28;20115;-82
2022/10/24 10:26:19;;;;;;;7.00;1.88;;;15.90;99.90;;;;;;5140286;27;20089;-82
2022/10/24 10:28:51;;;;;;;5.20;1.27;;;16.00;99.90;;;;;;5128840;27;20039;-83
2022/10/24 10:31:21;;;;;;;8.07;1.10;;;16.00;99.90;;;;;;5111007;28;20539;-81
2022/10/24 10:33:49;;;;;;;8.48;1.08;;;15.90;99.90;;;;;;5138049;27;20039;-83
2022/10/24 10:36:37;;;;;;;6.05;1.38;;;15.90;99.90;;;;;;5105136;28;20040;-85
2022/10/24 10:39:38;;;;;;;8.52;1.02;;;16.70;99.90;;;;;;5105979;28;20058;-83
2022/10/24 10:42:12;;;;;;;11.90;1.70;;;15.60;99.90;;;;;;5088663;28;20376;-82
2022/10/24 10:44:45;;;;;;;;;;;15.40;99.90;;;;;;5094978;28;20052;-86
2022/10/24 10:47:25;;;;;;;7.05;1.58;;;16.20;99.90;;;;;;5089346;28;20338;-84
2022/10/24 10:49:56;;;;;;;8.02;1.48;;;15.40;99.90;;;;;;5137204;27;20593;-84
2022/10/24 10:52:29;;;;;;;5.72;1.60;;;15.50;99.90;;;;;;5112123;28;20044;-85
2022/10/24 10:55:16;;;;;;;5.88;1.33;;;15.80;99.90;;;;;;5105416;28;20043;-82
2022/10/24 10:57:44;;;;;;;10.70;1.23;;;15.90;99.90;;;;;;5110709;28;20031;-85
2022/10/24 11:00:12;;;;;;;8.75;1.20;;;16.00;99.90;;;;;;5111256;28;20402;-85
2022/10/24 11:03:04;;;;;;;9.20;1.17;;;16.00;99.90;;;;;;5113103;28;20036;-83
2022/10/24 11:05:43;;;;;;;6.50;1.15;;;16.00;99.90;;;;;;5108138;28;20123;-81
2022/10/24 11:08:38;;;;;;;4.50;1.48;;;15.90;99.90;;;;;;5094935;28;20036;-83
2022/10/24 11:11:30;;;;;;;7.68;1.40;;;16.40;99.90;;;;;;5086333;28;20039;-86
2022/10/24 11:14:14;;;;;;;9.77;0.90;;;16.10;99.90;;;;;;5084386;28;20043;-86
2022/10/24 11:16:41;;;;;;;7.30;1.02;;;16.10;99.90;;;;;;5094337;28;20126;-86
2022/10/24 11:19:34;;;;;;;13.57;1.83;;;16.00;99.90;;;;;;5112327;28;20047;-82
2022/10/24 11:22:03;;;;;;;6.10;1.40;;;16.00;99.90;;;;;;5080539;28;20059;-85
2022/10/24 11:24:43;;;;;;;10.15;1.05;;;16.00;99.90;;;;;;5099554;28;20043;-77
2022/10/24 11:27:19;;;;;;;4.85;0.90;;;17.10;99.90;;;;;;5108193;27;20035;-78
2022/10/24 11:29:57;;;;;;;7.90;1.38;;;17.10;99.90;;;;;;5118806;27;20032;-77
2022/10/24 11:32:39;;;;;;;7.38;1.00;;;16.20;99.90;;;;;;5087739;28;20048;-77
2022/10/24 11:35:32;;;;;;;5.80;1.02;;;16.20;99.90;;;;;;5136017;27;20029;-74
2022/10/24 11:38:14;;;;;;;7.68;1.38;;;16.10;99.90;;;;;;5103266;27;20058;-83
2022/10/24 11:40:43;;;;;;;10.45;1.33;;;16.10;99.90;;;;;;5099860;28;20407;-78
2022/10/24 11:43:29;;;;;;;7.35;1.77;;;17.10;99.90;;;;;;5109541;28;20059;-83
2022/10/24 11:46:06;;;;;;;7.18;1.02;;;16.20;99.90;;;;;;5107679;28;20109;-74
2022/10/24 11:48:52;;;;;;;5.53;0.95;;;16.20;99.90;;;;;;5105628;28;20119;-78
2022/10/24 11:51:29;;;;;;;5.38;0.90;;;16.10;99.90;;;;;;5079824;28;20060;-73
2022/10/24 11:53:57;;;;;;;5.20;0.63;;;16.30;99.90;;;;;;5084177;28;20073;-84
2022/10/24 11:56:46;;;;;;;6.25;1.52;;;16.10;99.90;;;;;;5086882;28;20036;-77
2022/10/24 11:59:17;;;;;;;8.90;1.13;;;16.10;99.90;;;;;;5102660;28;20043;-84
2022/10/24 12:01:51;;;;;;;8.32;1.00;;;16.10;99.90;;;;;;5098785;28;20098;-74
2022/10/24 12:04:54;;;;;;;7.15;1.38;;;16.10;99.90;;;;;;5103331;28;20083;-74
2022/10/24 12:07:41;;;;;;;4.80;0.85;;;16.20;99.90;;;;;;5102179;28;20050;-80
2022/10/24 12:10:29;;;;;;;7.22;0.90;;;16.20;99.90;;;;;;5085482;28;20063;-87
2022/10/24 12:13:13;;;;;;;5.93;0.60;;;16.10;99.90;;;;;;5098066;28;20039;-78
2022/10/24 12:15:58;;;;;;;4.20;0.95;;;16.20;99.90;;;;;;5101755;28;21092;-85
2022/10/24 12:18:40;;;;;;;6.55;1.00;;;16.10;99.90;;;;;;5103894;28;20043;-78
2022/10/24 12:21:13;;;;;;;8.68;0.98;;;16.10;99.90;;;;;;5084190;28;20051;-78
2022/10/24 12:23:40;;;;;;;6.70;1.50;;;16.10;99.90;;;;;;5098620;28;20126;-82
2022/10/24 12:26:12;;;;;;;5.78;1.30;;;17.50;99.90;;;;;;5087343;28;20143;-82
2022/10/24 12:28:40;;;;;;;6.38;0.95;;;16.30;99.90;;;;;;5099970;28;20187;-81
2022/10/24 12:31:14;;;;;;;8.32;1.27;;;17.30;99.90;;;;;;5105343;28;20432;-77
2022/10/24 12:33:46;;;;;;;6.50;1.02;;;16.30;99.90;;;;;;5121834;27;20040;-77
2022/10/24 12:36:12;;;;;;;3.67;1.05;;;16.40;99.90;;;;;;5084836;28;20092;-83
2022/10/24 12:38:38;;;;;;;6.68;0.95;;;16.40;99.90;;;;;;5081754;28;20044;-75
2022/10/24 12:41:24;;;;;;;6.25;1.00;;;16.40;99.90;;;;;;5095336;27;20040;-83
2022/10/24 12:43:50;;;;;;;4.00;0.60;;;16.30;99.90;;;;;;5098187;28;20079;-76
2022/10/24 12:46:15;;;;;;;7.55;0.98;;;16.30;99.90;;;;;;5098314;28;20047;-80
2022/10/24 12:49:02;;;;;;;8.40;1.42;;;16.00;99.90;;;;;;5100321;28;20036;-80
2022/10/24 12:51:33;;;;;;;8.40;0.98;;;16.20;99.90;;;;;;5085087;28;20051;-80
2022/10/24 12:54:01;;;;;;;4.03;0.77;;;17.20;99.90;;;;;;5107068;28;20399;-78
2022/10/24 12:56:28;;;;;;;10.32;1.35;;;16.50;99.90;;;;;;5105594;28;20058;-79
2022/10/24 12:58:57;;;;;;;8.07;0.90;;;16.60;99.90;;;;;;5089214;28;20055;-83
2022/10/24 13:01:26;;;;;;;8.90;1.30;;;17.00;99.90;;;;;;5099552;28;20043;-79
2022/10/24 13:04:29;;;;;;;6.82;1.05;;;16.70;99.90;;;;;;5089103;28;20065;-80
2022/10/24 13:07:32;;;;;;;5.07;1.10;;;16.70;99.90;;;;;;5104150;28;20103;-77